15:22
Airports
Links
Donate
Help keep this website running!
PayPal
Bitcoin
METAR
CYCY 191507Z 33010KT 1 1/2SM IC SCT002 BKN004 M26/M28 A3014 RMK ST4ST3 SLP214
Current Weather Conditions at CYCY
LIFR 15:07:00 19-01-18
Altimeter:30.14 hg
Temp:-26.0°c -15°f
Dew point:-28.0°c -18°f
Wind:10 knots, 11.5 mph, 5 m/s, from 330°
Visibility:1.5 statute miles
400(BKN) Broken
200(SCT) Scattered
Past METAR reports
LIFR 15:00:00 19-01-18
Altimeter:30.14 hg
Temp:-26.0°c -15°f
Dew point:-28.0°c -18°f
Wind:9 knots, 10.4 mph, 5 m/s, from 330°
Visibility:1.5 statute miles
200(BKN) Broken
CYCY 191500Z 33009KT 1 1/2SM IC BKN002 M26/M28 A3014 RMK ST7 -24.4/-32.8/TR/19 TRACE LOOSE SLP214
LIFR 14:58:00 19-01-18
Automated station, no observer
Altimeter:30.14 hg
Temp:-26.0°c -15°f
Dew point:-28.0°c -18°f
Wind:9 knots, 10.4 mph, 5 m/s, from 330°
Visibility:2.0 statute miles
200(OVC) Overcast
CYCY 191458Z AUTO 33009KT 2SM BR OVC002 M26/M28 A3014 RMK VIS VRB 3/4-3 SLP214
LIFR 14:57:00 19-01-18
Automated station, no observer
Altimeter:30.14 hg
Temp:-26.0°c -15°f
Dew point:-28.0°c -18°f
Wind:10 knots, 11.5 mph, 5 m/s, from 330°
Visibility:2.5 statute miles
200(OVC) Overcast
CYCY 191457Z AUTO 33010KT 2 1/2SM BR OVC002 M26/M28 A3014 RMK VIS VRB 3/4-3 SLP214
LIFR 14:54:00 19-01-18
Automated station, no observer
Altimeter:30.14 hg
Temp:-26.0°c -15°f
Dew point:-28.0°c -18°f
Wind:10 knots, 11.5 mph, 5 m/s, from 340°
Visibility:3.0 statute miles
200(OVC) Overcast
CYCY 191454Z AUTO 34010KT 3SM BR OVC002 M26/M28 A3014 RMK SLP214
LIFR 14:49:00 19-01-18
Automated station, no observer
Altimeter:30.14 hg
Temp:-26.0°c -15°f
Dew point:-28.0°c -18°f
Wind:10 knots, 11.5 mph, 5 m/s, from 340°
Visibility:2.5 statute miles
200(OVC) Overcast
CYCY 191449Z AUTO 34010KT 2 1/2SM BR OVC002 M26/M28 A3014 RMK VIS VRB 1 1/4-3 SLP213
LIFR 14:45:00 19-01-18
Automated station, no observer
Altimeter:30.14 hg
Temp:-26.0°c -15°f
Dew point:-28.0°c -18°f
Wind:10 knots, 11.5 mph, 5 m/s, from 340°
Visibility:2.0 statute miles
200(OVC) Overcast
CYCY 191445Z AUTO 34010KT 2SM BR OVC002 M26/M28 A3014 RMK VIS VRB 3/4-3 SLP213
TAF
TAF AMD CYCY 191449Z 1914/2001 32007KT 1SM BR OVC002 TEMPO 1914/1917 6SM IC BR OVC006 FM191700 29008KT P6SM SKC PROB30 1917/1920 2SM BR BKN004 RMK FCST BASED ON AUTO OBS. NXT FCST BY 191900Z
Forecast at CYCY
TEMPO 14:00 19-01-18 to 17:00 19-01-18
IC BR
Visibility:6.0 statute miles
600OVC Overcast
14:00 19-01-18 to 17:00 19-01-18
BR
Wind:7 Knots from 320°
Visibility:1.0 statute miles
200OVC Overcast
PROB 17:00 19-01-18 to 20:00 19-01-18
30% BR
Visibility:2.0 statute miles
400BKN Broken
FM 17:00 19-01-18 to 01:00 20-01-18
Wind:8 Knots from 290°
Visibility:6.21 statute miles
SKC Clear